sensor_id;sensor_type;location;lat;lon;timestamp;temperature;humidity
61145;DHT22;47026;51.208;3.288;2022-08-07T00:01:21;15.00;99.90
61145;DHT22;47026;51.208;3.288;2022-08-07T00:03:47;14.90;99.90
61145;DHT22;47026;51.208;3.288;2022-08-07T00:06:14;14.90;99.90
61145;DHT22;47026;51.208;3.288;2022-08-07T00:08:40;14.90;99.90
61145;DHT22;47026;51.208;3.288;2022-08-07T00:11:06;14.80;99.90
61145;DHT22;47026;51.208;3.288;2022-08-07T00:13:32;14.80;99.90
61145;DHT22;47026;51.208;3.288;2022-08-07T00:15:58;14.80;99.90
61145;DHT22;47026;51.208;3.288;2022-08-07T00:18:26;14.70;99.90
61145;DHT22;47026;51.208;3.288;2022-08-07T00:21:02;14.70;99.90
61145;DHT22;47026;51.208;3.288;2022-08-07T00:23:30;14.60;99.90
61145;DHT22;47026;51.208;3.288;2022-08-07T00:25:58;14.50;99.90
61145;DHT22;47026;51.208;3.288;2022-08-07T00:28:24;14.50;99.90
61145;DHT22;47026;51.208;3.288;2022-08-07T00:30:49;14.50;99.90
61145;DHT22;47026;51.208;3.288;2022-08-07T00:33:16;14.40;99.90
61145;DHT22;47026;51.208;3.288;2022-08-07T00:35:42;14.60;99.90
61145;DHT22;47026;51.208;3.288;2022-08-07T00:38:08;14.90;99.90
61145;DHT22;47026;51.208;3.288;2022-08-07T00:40:33;15.00;99.90
61145;DHT22;47026;51.208;3.288;2022-08-07T00:43:00;14.90;99.90
61145;DHT22;47026;51.208;3.288;2022-08-07T00:45:25;14.70;99.90
61145;DHT22;47026;51.208;3.288;2022-08-07T00:47:51;14.60;99.90
61145;DHT22;47026;51.208;3.288;2022-08-07T00:50:17;14.50;99.90
61145;DHT22;47026;51.208;3.288;2022-08-07T00:52:43;14.40;99.90
61145;DHT22;47026;51.208;3.288;2022-08-07T00:55:09;14.20;99.90
61145;DHT22;47026;51.208;3.288;2022-08-07T00:57:35;14.10;99.90
61145;DHT22;47026;51.208;3.288;2022-08-07T01:00:03;14.10;99.90
61145;DHT22;47026;51.208;3.288;2022-08-07T01:02:29;14.20;99.90
61145;DHT22;47026;51.208;3.288;2022-08-07T01:04:56;14.10;99.90
61145;DHT22;47026;51.208;3.288;2022-08-07T01:07:22;14.10;99.90
61145;DHT22;47026;51.208;3.288;2022-08-07T01:09:48;14.20;99.90
61145;DHT22;47026;51.208;3.288;2022-08-07T01:12:15;14.10;99.90
61145;DHT22;47026;51.208;3.288;2022-08-07T01:14:41;14.10;99.90
61145;DHT22;47026;51.208;3.288;2022-08-07T01:17:08;13.90;99.90
61145;DHT22;47026;51.208;3.288;2022-08-07T01:19:34;14.00;99.90
61145;DHT22;47026;51.208;3.288;2022-08-07T01:22:02;14.10;99.90
61145;DHT22;47026;51.208;3.288;2022-08-07T01:24:29;14.10;99.90
61145;DHT22;47026;51.208;3.288;2022-08-07T01:26:55;14.10;99.90
61145;DHT22;47026;51.208;3.288;2022-08-07T01:29:27;14.10;99.90
61145;DHT22;47026;51.208;3.288;2022-08-07T01:31:53;14.20;99.90
61145;DHT22;47026;51.208;3.288;2022-08-07T01:34:19;14.10;99.90
61145;DHT22;47026;51.208;3.288;2022-08-07T01:36:46;14.10;99.90
61145;DHT22;47026;51.208;3.288;2022-08-07T01:39:12;14.00;99.90
61145;DHT22;47026;51.208;3.288;2022-08-07T01:41:38;14.00;99.90
61145;DHT22;47026;51.208;3.288;2022-08-07T01:44:05;14.00;99.90
61145;DHT22;47026;51.208;3.288;2022-08-07T01:46:30;13.90;99.90
61145;DHT22;47026;51.208;3.288;2022-08-07T01:48:57;13.80;99.90
61145;DHT22;47026;51.208;3.288;2022-08-07T01:51:23;13.90;99.90
61145;DHT22;47026;51.208;3.288;2022-08-07T01:53:50;13.80;99.90
61145;DHT22;47026;51.208;3.288;2022-08-07T01:56:24;13.90;99.90
61145;DHT22;47026;51.208;3.288;2022-08-07T01:59:00;13.80;99.90
61145;DHT22;47026;51.208;3.288;2022-08-07T02:01:32;13.60;99.90
61145;DHT22;47026;51.208;3.288;2022-08-07T02:04:23;13.60;99.90
61145;DHT22;47026;51.208;3.288;2022-08-07T02:06:51;13.50;99.90
61145;DHT22;47026;51.208;3.288;2022-08-07T02:09:19;13.40;99.90
61145;DHT22;47026;51.208;3.288;2022-08-07T02:11:48;13.50;99.90
61145;DHT22;47026;51.208;3.288;2022-08-07T02:14:16;13.60;99.90
61145;DHT22;47026;51.208;3.288;2022-08-07T02:16:45;13.60;99.90
61145;DHT22;47026;51.208;3.288;2022-08-07T02:19:13;13.60;99.90
61145;DHT22;47026;51.208;3.288;2022-08-07T02:21:42;13.60;99.90
61145;DHT22;47026;51.208;3.288;2022-08-07T02:24:09;13.60;99.90
61145;DHT22;47026;51.208;3.288;2022-08-07T02:26:38;13.60;99.90
61145;DHT22;47026;51.208;3.288;2022-08-07T02:29:06;13.60;99.90
61145;DHT22;47026;51.208;3.288;2022-08-07T02:31:33;13.60;99.90
61145;DHT22;47026;51.208;3.288;2022-08-07T02:34:01;13.40;99.90
61145;DHT22;47026;51.208;3.288;2022-08-07T02:36:28;13.40;99.90
61145;DHT22;47026;51.208;3.288;2022-08-07T02:38:58;13.30;99.90
61145;DHT22;47026;51.208;3.288;2022-08-07T02:41:25;13.20;99.90
61145;DHT22;47026;51.208;3.288;2022-08-07T02:43:52;13.10;99.90
61145;DHT22;47026;51.208;3.288;2022-08-07T02:46:20;13.10;99.90
61145;DHT22;47026;51.208;3.288;2022-08-07T02:48:47;13.10;99.90
61145;DHT22;47026;51.208;3.288;2022-08-07T02:51:14;13.10;99.90
61145;DHT22;47026;51.208;3.288;2022-08-07T02:53:42;13.10;99.90
61145;DHT22;47026;51.208;3.288;2022-08-07T02:56:12;13.20;99.90
61145;DHT22;47026;51.208;3.288;2022-08-07T02:58:40;13.20;99.90
61145;DHT22;47026;51.208;3.288;2022-08-07T03:01:09;13.30;99.90
61145;DHT22;47026;51.208;3.288;2022-08-07T03:03:36;13.20;99.90
61145;DHT22;47026;51.208;3.288;2022-08-07T03:06:02;13.10;99.90
61145;DHT22;47026;51.208;3.288;2022-08-07T03:08:29;13.10;99.90
61145;DHT22;47026;51.208;3.288;2022-08-07T03:10:56;13.10;99.90
61145;DHT22;47026;51.208;3.288;2022-08-07T03:13:23;13.10;99.90
61145;DHT22;47026;51.208;3.288;2022-08-07T03:15:49;13.20;99.90
61145;DHT22;47026;51.208;3.288;2022-08-07T03:18:16;13.10;99.90
61145;DHT22;47026;51.208;3.288;2022-08-07T03:20:42;13.10;99.90
61145;DHT22;47026;51.208;3.288;2022-08-07T03:23:09;13.10;99.90
61145;DHT22;47026;51.208;3.288;2022-08-07T03:25:38;13.10;99.90
61145;DHT22;47026;51.208;3.288;2022-08-07T03:28:09;13.00;99.90
61145;DHT22;47026;51.208;3.288;2022-08-07T03:30:37;13.00;99.90
61145;DHT22;47026;51.208;3.288;2022-08-07T03:33:04;12.90;99.90
61145;DHT22;47026;51.208;3.288;2022-08-07T03:35:31;12.90;99.90
61145;DHT22;47026;51.208;3.288;2022-08-07T03:38:01;13.00;99.90
61145;DHT22;47026;51.208;3.288;2022-08-07T03:40:29;13.00;99.90
61145;DHT22;47026;51.208;3.288;2022-08-07T03:42:55;13.10;99.90
61145;DHT22;47026;51.208;3.288;2022-08-07T03:45:24;12.90;99.90
61145;DHT22;47026;51.208;3.288;2022-08-07T03:47:50;13.00;99.90
61145;DHT22;47026;51.208;3.288;2022-08-07T03:50:18;13.00;99.90
61145;DHT22;47026;51.208;3.288;2022-08-07T03:52:46;13.00;99.90
61145;DHT22;47026;51.208;3.288;2022-08-07T03:55:13;13.00;99.90
61145;DHT22;47026;51.208;3.288;2022-08-07T03:57:40;13.10;99.90
61145;DHT22;47026;51.208;3.288;2022-08-07T04:00:07;13.10;99.90
61145;DHT22;47026;51.208;3.288;2022-08-07T04:02:33;13.00;99.90
61145;DHT22;47026;51.208;3.288;2022-08-07T04:04:59;12.90;99.90
61145;DHT22;47026;51.208;3.288;2022-08-07T04:07:25;12.90;99.90
61145;DHT22;47026;51.208;3.288;2022-08-07T04:09:51;12.80;99.90
61145;DHT22;47026;51.208;3.288;2022-08-07T04:12:17;13.00;99.90
61145;DHT22;47026;51.208;3.288;2022-08-07T04:14:44;13.00;99.90
61145;DHT22;47026;51.208;3.288;2022-08-07T04:17:11;13.10;99.90
61145;DHT22;47026;51.208;3.288;2022-08-07T04:19:41;13.00;99.90
61145;DHT22;47026;51.208;3.288;2022-08-07T04:22:07;13.10;99.90
61145;DHT22;47026;51.208;3.288;2022-08-07T04:24:33;13.00;99.90
61145;DHT22;47026;51.208;3.288;2022-08-07T04:26:59;13.00;99.90
61145;DHT22;47026;51.208;3.288;2022-08-07T04:29:28;12.90;99.90
61145;DHT22;47026;51.208;3.288;2022-08-07T04:31:55;12.90;99.90
61145;DHT22;47026;51.208;3.288;2022-08-07T04:34:21;12.90;99.90
61145;DHT22;47026;51.208;3.288;2022-08-07T04:36:48;13.10;99.90
61145;DHT22;47026;51.208;3.288;2022-08-07T04:39:14;13.20;99.90
61145;DHT22;47026;51.208;3.288;2022-08-07T04:41:40;13.20;99.90
61145;DHT22;47026;51.208;3.288;2022-08-07T04:44:06;13.10;99.90
61145;DHT22;47026;51.208;3.288;2022-08-07T04:47:02;13.00;99.90
61145;DHT22;47026;51.208;3.288;2022-08-07T04:52:52;12.80;99.90
61145;DHT22;47026;51.208;3.288;2022-08-07T04:55:47;12.70;99.90
61145;DHT22;47026;51.208;3.288;2022-08-07T05:01:29;12.90;99.90
61145;DHT22;47026;51.208;3.288;2022-08-07T05:06:41;13.10;99.90
61145;DHT22;47026;51.208;3.288;2022-08-07T05:10:34;13.10;99.90
61145;DHT22;47026;51.208;3.288;2022-08-07T05:12:34;13.20;99.90
61145;DHT22;47026;51.208;3.288;2022-08-07T05:15:07;13.20;99.90
61145;DHT22;47026;51.208;3.288;2022-08-07T05:17:46;13.20;99.90
61145;DHT22;47026;51.208;3.288;2022-08-07T05:20:19;13.20;99.90
61145;DHT22;47026;51.208;3.288;2022-08-07T05:22:51;13.20;99.90
61145;DHT22;47026;51.208;3.288;2022-08-07T05:25:20;13.20;99.90
61145;DHT22;47026;51.208;3.288;2022-08-07T05:27:47;13.30;99.90
61145;DHT22;47026;51.208;3.288;2022-08-07T05:30:15;13.30;99.90
61145;DHT22;47026;51.208;3.288;2022-08-07T05:32:43;13.30;99.90
61145;DHT22;47026;51.208;3.288;2022-08-07T05:35:13;13.30;99.90
61145;DHT22;47026;51.208;3.288;2022-08-07T05:37:40;13.50;99.90
61145;DHT22;47026;51.208;3.288;2022-08-07T05:40:07;13.70;99.90
61145;DHT22;47026;51.208;3.288;2022-08-07T05:42:34;13.90;99.90
61145;DHT22;47026;51.208;3.288;2022-08-07T05:45:01;14.00;99.90
61145;DHT22;47026;51.208;3.288;2022-08-07T05:47:30;14.00;99.90
61145;DHT22;47026;51.208;3.288;2022-08-07T05:49:57;14.20;99.90
61145;DHT22;47026;51.208;3.288;2022-08-07T05:52:23;14.40;99.90
61145;DHT22;47026;51.208;3.288;2022-08-07T05:54:49;14.40;99.90
61145;DHT22;47026;51.208;3.288;2022-08-07T05:57:15;14.60;99.90
61145;DHT22;47026;51.208;3.288;2022-08-07T05:59:42;14.60;99.90
61145;DHT22;47026;51.208;3.288;2022-08-07T06:02:13;14.80;99.90
61145;DHT22;47026;51.208;3.288;2022-08-07T06:04:44;15.00;99.90
61145;DHT22;47026;51.208;3.288;2022-08-07T06:07:10;15.10;99.90
61145;DHT22;47026;51.208;3.288;2022-08-07T06:09:36;15.20;99.90
61145;DHT22;47026;51.208;3.288;2022-08-07T06:12:03;15.30;99.90
61145;DHT22;47026;51.208;3.288;2022-08-07T06:14:29;15.40;99.90
61145;DHT22;47026;51.208;3.288;2022-08-07T06:16:55;15.60;99.90
61145;DHT22;47026;51.208;3.288;2022-08-07T06:19:21;15.60;99.90
61145;DHT22;47026;51.208;3.288;2022-08-07T06:21:48;15.70;99.90
61145;DHT22;47026;51.208;3.288;2022-08-07T06:24:14;15.70;99.90
61145;DHT22;47026;51.208;3.288;2022-08-07T06:26:41;15.80;99.90
61145;DHT22;47026;51.208;3.288;2022-08-07T06:29:07;16.00;99.90
61145;DHT22;47026;51.208;3.288;2022-08-07T06:31:34;16.20;99.90
61145;DHT22;47026;51.208;3.288;2022-08-07T06:34:00;16.40;99.90
61145;DHT22;47026;51.208;3.288;2022-08-07T06:36:26;16.60;99.90
61145;DHT22;47026;51.208;3.288;2022-08-07T06:38:52;16.80;99.90
61145;DHT22;47026;51.208;3.288;2022-08-07T06:43:52;17.10;99.90
61145;DHT22;47026;51.208;3.288;2022-08-07T06:46:19;17.20;99.90
61145;DHT22;47026;51.208;3.288;2022-08-07T06:48:46;17.30;99.90
61145;DHT22;47026;51.208;3.288;2022-08-07T06:51:18;17.50;99.90
61145;DHT22;47026;51.208;3.288;2022-08-07T06:53:45;17.60;99.90
61145;DHT22;47026;51.208;3.288;2022-08-07T06:56:13;17.80;99.90
61145;DHT22;47026;51.208;3.288;2022-08-07T06:58:40;18.00;99.90
61145;DHT22;47026;51.208;3.288;2022-08-07T07:01:08;18.40;99.90
61145;DHT22;47026;51.208;3.288;2022-08-07T07:03:37;19.10;99.90
61145;DHT22;47026;51.208;3.288;2022-08-07T07:06:06;20.20;99.90
61145;DHT22;47026;51.208;3.288;2022-08-07T07:08:32;21.50;99.90
61145;DHT22;47026;51.208;3.288;2022-08-07T07:10:58;22.60;99.90
61145;DHT22;47026;51.208;3.288;2022-08-07T07:13:33;23.60;99.90
61145;DHT22;47026;51.208;3.288;2022-08-07T07:16:13;24.20;99.90
61145;DHT22;47026;51.208;3.288;2022-08-07T07:18:54;24.50;99.90
61145;DHT22;47026;51.208;3.288;2022-08-07T07:21:25;24.70;99.90
61145;DHT22;47026;51.208;3.288;2022-08-07T07:23:53;25.40;99.90
61145;DHT22;47026;51.208;3.288;2022-08-07T07:26:21;25.90;99.90
61145;DHT22;47026;51.208;3.288;2022-08-07T07:28:51;26.30;99.90
61145;DHT22;47026;51.208;3.288;2022-08-07T07:31:34;26.00;99.90
61145;DHT22;47026;51.208;3.288;2022-08-07T07:34:05;26.00;99.90
61145;DHT22;47026;51.208;3.288;2022-08-07T07:36:32;26.70;99.90
61145;DHT22;47026;51.208;3.288;2022-08-07T07:39:00;27.30;99.90
61145;DHT22;47026;51.208;3.288;2022-08-07T07:41:28;27.60;99.90
61145;DHT22;47026;51.208;3.288;2022-08-07T07:43:54;27.10;99.90
61145;DHT22;47026;51.208;3.288;2022-08-07T07:46:21;27.50;99.90
61145;DHT22;47026;51.208;3.288;2022-08-07T07:48:50;27.30;99.90
61145;DHT22;47026;51.208;3.288;2022-08-07T07:51:18;27.80;99.90
61145;DHT22;47026;51.208;3.288;2022-08-07T07:53:46;27.40;99.90
61145;DHT22;47026;51.208;3.288;2022-08-07T07:56:13;27.60;99.90
61145;DHT22;47026;51.208;3.288;2022-08-07T07:58:41;27.30;99.80
61145;DHT22;47026;51.208;3.288;2022-08-07T08:01:09;28.20;98.90
61145;DHT22;47026;51.208;3.288;2022-08-07T08:03:36;27.90;98.50
61145;DHT22;47026;51.208;3.288;2022-08-07T08:06:03;28.60;97.50
61145;DHT22;47026;51.208;3.288;2022-08-07T08:08:32;28.60;97.40
61145;DHT22;47026;51.208;3.288;2022-08-07T08:10:59;28.70;96.40
61145;DHT22;47026;51.208;3.288;2022-08-07T08:13:26;28.20;97.10
61145;DHT22;47026;51.208;3.288;2022-08-07T08:15:55;28.70;97.20
61145;DHT22;47026;51.208;3.288;2022-08-07T08:18:23;28.80;95.70
61145;DHT22;47026;51.208;3.288;2022-08-07T08:20:49;28.80;96.10
61145;DHT22;47026;51.208;3.288;2022-08-07T08:23:18;28.30;95.30
61145;DHT22;47026;51.208;3.288;2022-08-07T08:26:17;28.00;95.10
61145;DHT22;47026;51.208;3.288;2022-08-07T08:29:03;27.70;95.70
61145;DHT22;47026;51.208;3.288;2022-08-07T08:31:32;27.60;96.10
61145;DHT22;47026;51.208;3.288;2022-08-07T08:34:03;27.40;95.30
61145;DHT22;47026;51.208;3.288;2022-08-07T08:36:31;27.20;95.80
61145;DHT22;47026;51.208;3.288;2022-08-07T08:39:00;27.70;96.40
61145;DHT22;47026;51.208;3.288;2022-08-07T08:41:42;28.70;95.50
61145;DHT22;47026;51.208;3.288;2022-08-07T08:44:16;29.20;94.30
61145;DHT22;47026;51.208;3.288;2022-08-07T08:47:07;29.80;93.60
61145;DHT22;47026;51.208;3.288;2022-08-07T08:50:10;29.60;92.60
61145;DHT22;47026;51.208;3.288;2022-08-07T08:52:47;29.70;92.70
61145;DHT22;47026;51.208;3.288;2022-08-07T08:55:25;29.20;93.20
61145;DHT22;47026;51.208;3.288;2022-08-07T08:58:09;30.40;92.10
61145;DHT22;47026;51.208;3.288;2022-08-07T09:00:42;31.00;91.00
61145;DHT22;47026;51.208;3.288;2022-08-07T09:03:25;30.10;90.00
61145;DHT22;47026;51.208;3.288;2022-08-07T09:06:31;30.60;90.60
61145;DHT22;47026;51.208;3.288;2022-08-07T09:12:22;30.50;88.60
61145;DHT22;47026;51.208;3.288;2022-08-07T09:20:50;30.10;89.80
61145;DHT22;47026;51.208;3.288;2022-08-07T09:23:28;30.20;90.00
61145;DHT22;47026;51.208;3.288;2022-08-07T09:26:32;31.30;87.60
61145;DHT22;47026;51.208;3.288;2022-08-07T09:34:30;31.00;87.70
61145;DHT22;47026;51.208;3.288;2022-08-07T09:40:02;30.90;87.80
61145;DHT22;47026;51.208;3.288;2022-08-07T09:45:37;32.00;85.30
61145;DHT22;47026;51.208;3.288;2022-08-07T09:53:51;32.40;82.70
61145;DHT22;47026;51.208;3.288;2022-08-07T10:02:17;30.60;85.20
61145;DHT22;47026;51.208;3.288;2022-08-07T10:07:57;30.80;85.30
61145;DHT22;47026;51.208;3.288;2022-08-07T10:21:52;30.50;87.10
61145;DHT22;47026;51.208;3.288;2022-08-07T10:24:23;30.30;85.80
61145;DHT22;47026;51.208;3.288;2022-08-07T10:32:53;30.20;85.60
61145;DHT22;47026;51.208;3.288;2022-08-07T10:35:34;31.70;84.50
61145;DHT22;47026;51.208;3.288;2022-08-07T10:41:14;32.20;82.50
61145;DHT22;47026;51.208;3.288;2022-08-07T10:44:09;31.70;82.60
61145;DHT22;47026;51.208;3.288;2022-08-07T10:47:11;32.40;82.40
61145;DHT22;47026;51.208;3.288;2022-08-07T10:49:43;33.00;80.80
61145;DHT22;47026;51.208;3.288;2022-08-07T10:52:17;33.30;80.30
61145;DHT22;47026;51.208;3.288;2022-08-07T10:55:06;33.70;79.40
61145;DHT22;47026;51.208;3.288;2022-08-07T11:00:20;34.20;76.90
61145;DHT22;47026;51.208;3.288;2022-08-07T11:03:06;34.00;76.30
61145;DHT22;47026;51.208;3.288;2022-08-07T11:05:54;33.70;78.30
61145;DHT22;47026;51.208;3.288;2022-08-07T11:11:17;34.30;75.60
61145;DHT22;47026;51.208;3.288;2022-08-07T11:13:57;34.60;76.70
61145;DHT22;47026;51.208;3.288;2022-08-07T11:22:47;34.80;72.50
61145;DHT22;47026;51.208;3.288;2022-08-07T11:30:21;32.40;76.40
61145;DHT22;47026;51.208;3.288;2022-08-07T11:35:58;32.20;76.50
61145;DHT22;47026;51.208;3.288;2022-08-07T11:41:13;32.00;78.30
61145;DHT22;47026;51.208;3.288;2022-08-07T11:44:08;32.70;77.50
61145;DHT22;47026;51.208;3.288;2022-08-07T11:49:59;32.90;76.60
61145;DHT22;47026;51.208;3.288;2022-08-07T12:01:09;32.50;75.10
61145;DHT22;47026;51.208;3.288;2022-08-07T12:03:55;33.30;75.20
61145;DHT22;47026;51.208;3.288;2022-08-07T12:06:52;31.80;76.10
61145;DHT22;47026;51.208;3.288;2022-08-07T12:09:34;31.90;77.60
61145;DHT22;47026;51.208;3.288;2022-08-07T12:12:07;32.40;76.90
61145;DHT22;47026;51.208;3.288;2022-08-07T12:17:11;33.10;74.30
61145;DHT22;47026;51.208;3.288;2022-08-07T12:19:58;33.40;72.40
61145;DHT22;47026;51.208;3.288;2022-08-07T12:22:43;32.60;73.00
61145;DHT22;47026;51.208;3.288;2022-08-07T12:25:12;33.50;72.70
61145;DHT22;47026;51.208;3.288;2022-08-07T12:28:13;34.70;70.60
61145;DHT22;47026;51.208;3.288;2022-08-07T12:30:41;33.70;69.90
61145;DHT22;47026;51.208;3.288;2022-08-07T12:33:14;32.90;71.70
61145;DHT22;47026;51.208;3.288;2022-08-07T12:35:47;32.30;73.20
61145;DHT22;47026;51.208;3.288;2022-08-07T12:38:14;32.60;73.30
61145;DHT22;47026;51.208;3.288;2022-08-07T12:40:43;32.60;72.70
61145;DHT22;47026;51.208;3.288;2022-08-07T12:43:12;33.60;72.40
61145;DHT22;47026;51.208;3.288;2022-08-07T12:48:35;33.80;70.00
61145;DHT22;47026;51.208;3.288;2022-08-07T12:51:30;33.60;69.80
61145;DHT22;47026;51.208;3.288;2022-08-07T12:57:07;32.20;74.30
61145;DHT22;47026;51.208;3.288;2022-08-07T12:59:36;32.30;73.00
61145;DHT22;47026;51.208;3.288;2022-08-07T13:02:31;32.70;72.80
61145;DHT22;47026;51.208;3.288;2022-08-07T13:05:16;33.60;70.30
61145;DHT22;47026;51.208;3.288;2022-08-07T13:17:16;35.60;65.40
61145;DHT22;47026;51.208;3.288;2022-08-07T13:19:55;34.80;66.10
61145;DHT22;47026;51.208;3.288;2022-08-07T13:22:40;33.20;68.30
61145;DHT22;47026;51.208;3.288;2022-08-07T13:28:09;31.90;71.60
61145;DHT22;47026;51.208;3.288;2022-08-07T13:30:41;31.40;73.20
61145;DHT22;47026;51.208;3.288;2022-08-07T13:33:27;33.20;71.50
61145;DHT22;47026;51.208;3.288;2022-08-07T13:36:00;34.60;69.40
61145;DHT22;47026;51.208;3.288;2022-08-07T13:38:29;34.60;68.90
61145;DHT22;47026;51.208;3.288;2022-08-07T13:43:26;34.60;67.20
61145;DHT22;47026;51.208;3.288;2022-08-07T13:45:59;34.70;68.60
61145;DHT22;47026;51.208;3.288;2022-08-07T13:48:28;34.50;67.70
61145;DHT22;47026;51.208;3.288;2022-08-07T13:50:56;33.00;69.70
61145;DHT22;47026;51.208;3.288;2022-08-07T13:53:34;32.20;71.50
61145;DHT22;47026;51.208;3.288;2022-08-07T13:56:02;32.50;71.90
61145;DHT22;47026;51.208;3.288;2022-08-07T13:58:37;33.10;71.00
61145;DHT22;47026;51.208;3.288;2022-08-07T14:01:24;31.70;72.10
61145;DHT22;47026;51.208;3.288;2022-08-07T14:03:52;31.30;74.30
61145;DHT22;47026;51.208;3.288;2022-08-07T14:06:19;31.10;72.80
61145;DHT22;47026;51.208;3.288;2022-08-07T14:08:50;31.80;72.60
61145;DHT22;47026;51.208;3.288;2022-08-07T14:11:19;32.60;70.90
61145;DHT22;47026;51.208;3.288;2022-08-07T14:13:50;32.20;70.90
61145;DHT22;47026;51.208;3.288;2022-08-07T14:16:24;32.40;71.40
61145;DHT22;47026;51.208;3.288;2022-08-07T14:18:52;33.40;70.70
61145;DHT22;47026;51.208;3.288;2022-08-07T14:24:00;32.70;68.90
61145;DHT22;47026;51.208;3.288;2022-08-07T14:26:38;32.50;71.10
61145;DHT22;47026;51.208;3.288;2022-08-07T14:29:09;33.00;70.70
61145;DHT22;47026;51.208;3.288;2022-08-07T14:31:37;33.60;69.50
61145;DHT22;47026;51.208;3.288;2022-08-07T14:34:04;33.60;69.50
61145;DHT22;47026;51.208;3.288;2022-08-07T14:36:32;32.80;70.30
61145;DHT22;47026;51.208;3.288;2022-08-07T14:39:02;32.40;70.80
61145;DHT22;47026;51.208;3.288;2022-08-07T14:41:30;31.90;71.40
61145;DHT22;47026;51.208;3.288;2022-08-07T14:44:00;32.00;72.00
61145;DHT22;47026;51.208;3.288;2022-08-07T14:46:27;32.20;71.00
61145;DHT22;47026;51.208;3.288;2022-08-07T14:48:55;32.90;70.10
61145;DHT22;47026;51.208;3.288;2022-08-07T14:51:24;33.10;68.10
61145;DHT22;47026;51.208;3.288;2022-08-07T14:53:56;32.30;68.90
61145;DHT22;47026;51.208;3.288;2022-08-07T14:56:27;32.10;69.90
61145;DHT22;47026;51.208;3.288;2022-08-07T14:58:55;32.20;71.10
61145;DHT22;47026;51.208;3.288;2022-08-07T15:01:33;32.60;70.50
61145;DHT22;47026;51.208;3.288;2022-08-07T15:04:04;30.40;74.00
61145;DHT22;47026;51.208;3.288;2022-08-07T15:06:34;30.70;74.40
61145;DHT22;47026;51.208;3.288;2022-08-07T15:09:10;30.90;74.10
61145;DHT22;47026;51.208;3.288;2022-08-07T15:11:40;30.10;75.10
61145;DHT22;47026;51.208;3.288;2022-08-07T15:14:14;30.00;74.60
61145;DHT22;47026;51.208;3.288;2022-08-07T15:16:47;30.30;74.90
61145;DHT22;47026;51.208;3.288;2022-08-07T15:19:17;31.00;74.10
61145;DHT22;47026;51.208;3.288;2022-08-07T15:21:47;31.40;73.40
61145;DHT22;47026;51.208;3.288;2022-08-07T15:24:20;31.80;73.00
61145;DHT22;47026;51.208;3.288;2022-08-07T15:26:56;32.00;72.50
61145;DHT22;47026;51.208;3.288;2022-08-07T15:29:26;31.50;72.80
61145;DHT22;47026;51.208;3.288;2022-08-07T15:32:00;30.10;73.90
61145;DHT22;47026;51.208;3.288;2022-08-07T15:34:32;29.40;76.70
61145;DHT22;47026;51.208;3.288;2022-08-07T15:37:04;29.80;76.30
61145;DHT22;47026;51.208;3.288;2022-08-07T15:39:36;29.90;77.60
61145;DHT22;47026;51.208;3.288;2022-08-07T15:42:06;31.10;73.90
61145;DHT22;47026;51.208;3.288;2022-08-07T15:44:49;30.80;74.60
61145;DHT22;47026;51.208;3.288;2022-08-07T15:47:17;30.90;73.00
61145;DHT22;47026;51.208;3.288;2022-08-07T15:49:47;30.10;75.30
61145;DHT22;47026;51.208;3.288;2022-08-07T15:52:18;30.30;75.30
61145;DHT22;47026;51.208;3.288;2022-08-07T15:54:47;28.80;77.20
61145;DHT22;47026;51.208;3.288;2022-08-07T15:57:20;28.30;79.10
61145;DHT22;47026;51.208;3.288;2022-08-07T15:59:49;28.70;79.60
61145;DHT22;47026;51.208;3.288;2022-08-07T16:02:26;28.60;79.30
61145;DHT22;47026;51.208;3.288;2022-08-07T16:04:58;28.90;79.40
61145;DHT22;47026;51.208;3.288;2022-08-07T16:07:28;28.90;78.10
61145;DHT22;47026;51.208;3.288;2022-08-07T16:10:17;28.20;78.50
61145;DHT22;47026;51.208;3.288;2022-08-07T16:18:11;27.60;81.10
61145;DHT22;47026;51.208;3.288;2022-08-07T16:20:52;27.50;82.10
61145;DHT22;47026;51.208;3.288;2022-08-07T16:27:33;25.70;84.80
61145;DHT22;47026;51.208;3.288;2022-08-07T16:32:12;25.00;87.30
61145;DHT22;47026;51.208;3.288;2022-08-07T16:34:51;25.10;87.60
61145;DHT22;47026;51.208;3.288;2022-08-07T16:40:41;24.30;90.50
61145;DHT22;47026;51.208;3.288;2022-08-07T16:52:35;24.30;90.30
61145;DHT22;47026;51.208;3.288;2022-08-07T16:58:02;24.00;90.20
61145;DHT22;47026;51.208;3.288;2022-08-07T17:06:52;24.00;90.10
61145;DHT22;47026;51.208;3.288;2022-08-07T17:09:45;23.70;91.10
61145;DHT22;47026;51.208;3.288;2022-08-07T17:12:21;23.60;91.10
61145;DHT22;47026;51.208;3.288;2022-08-07T17:17:43;23.70;91.00
61145;DHT22;47026;51.208;3.288;2022-08-07T17:20:38;23.50;91.20
61145;DHT22;47026;51.208;3.288;2022-08-07T17:28:54;23.40;91.50
61145;DHT22;47026;51.208;3.288;2022-08-07T17:31:48;23.30;91.90
61145;DHT22;47026;51.208;3.288;2022-08-07T17:34:25;23.30;92.10
61145;DHT22;47026;51.208;3.288;2022-08-07T17:37:06;23.20;92.60
61145;DHT22;47026;51.208;3.288;2022-08-07T17:40:03;23.00;93.20
61145;DHT22;47026;51.208;3.288;2022-08-07T17:42:50;22.90;93.00
61145;DHT22;47026;51.208;3.288;2022-08-07T17:45:22;22.80;92.80
61145;DHT22;47026;51.208;3.288;2022-08-07T17:48:14;23.00;92.70
61145;DHT22;47026;51.208;3.288;2022-08-07T17:51:08;23.10;92.40
61145;DHT22;47026;51.208;3.288;2022-08-07T17:54:12;23.00;93.60
61145;DHT22;47026;51.208;3.288;2022-08-07T17:56:51;22.80;93.50
61145;DHT22;47026;51.208;3.288;2022-08-07T17:59:19;22.70;94.10
61145;DHT22;47026;51.208;3.288;2022-08-07T18:02:00;22.70;94.60
61145;DHT22;47026;51.208;3.288;2022-08-07T18:04:41;22.80;94.10
61145;DHT22;47026;51.208;3.288;2022-08-07T18:07:14;22.60;94.30
61145;DHT22;47026;51.208;3.288;2022-08-07T18:09:46;22.60;94.70
61145;DHT22;47026;51.208;3.288;2022-08-07T18:12:23;22.50;95.10
61145;DHT22;47026;51.208;3.288;2022-08-07T18:15:01;22.50;94.60
61145;DHT22;47026;51.208;3.288;2022-08-07T18:20:08;22.20;95.30
61145;DHT22;47026;51.208;3.288;2022-08-07T18:22:37;21.90;96.00
61145;DHT22;47026;51.208;3.288;2022-08-07T18:25:10;21.70;96.40
61145;DHT22;47026;51.208;3.288;2022-08-07T18:30:58;21.70;97.20
61145;DHT22;47026;51.208;3.288;2022-08-07T18:34:06;21.90;97.20
61145;DHT22;47026;51.208;3.288;2022-08-07T18:45:54;21.70;98.70
61145;DHT22;47026;51.208;3.288;2022-08-07T18:48:42;21.30;99.40
61145;DHT22;47026;51.208;3.288;2022-08-07T18:51:24;21.20;99.90
61145;DHT22;47026;51.208;3.288;2022-08-07T19:02:05;21.00;99.90
61145;DHT22;47026;51.208;3.288;2022-08-07T19:05:01;21.00;99.90
61145;DHT22;47026;51.208;3.288;2022-08-07T19:07:56;20.90;99.90
61145;DHT22;47026;51.208;3.288;2022-08-07T19:10:30;20.80;99.90
61145;DHT22;47026;51.208;3.288;2022-08-07T19:13:05;20.80;99.90
61145;DHT22;47026;51.208;3.288;2022-08-07T19:16:13;20.70;99.90